createdAt,value
2018-12-23T00:00:37.078Z,101350.21
2018-12-23T00:03:06.128Z,101357.30
2018-12-23T00:05:35.185Z,101367.58
2018-12-23T00:08:04.287Z,101365.72
2018-12-23T00:10:33.463Z,101367.52
2018-12-23T00:13:02.403Z,101378.41
2018-12-23T00:15:31.486Z,101375.35
2018-12-23T00:18:00.530Z,101376.72
2018-12-23T00:20:29.579Z,101381.36
2018-12-23T00:22:58.658Z,101385.83
2018-12-23T00:25:27.715Z,101387.52
2018-12-23T00:27:56.776Z,101392.41
2018-12-23T00:30:25.929Z,101395.63
2018-12-23T00:32:54.983Z,101399.05
2018-12-23T00:35:24.049Z,101398.72
2018-12-23T00:37:53.127Z,101405.64
2018-12-23T00:40:22.186Z,101400.23
2018-12-23T00:42:51.244Z,101401.44
2018-12-23T00:45:20.353Z,101410.80
2018-12-23T00:47:49.620Z,101410.63
2018-12-23T00:50:18.687Z,101415.23
2018-12-23T00:52:47.781Z,101417.98
2018-12-23T00:55:16.838Z,101422.85
2018-12-23T00:57:45.906Z,101425.39
2018-12-23T01:00:14.995Z,101430.75
2018-12-23T01:02:44.062Z,101438.76
2018-12-23T01:05:13.121Z,101439.70
2018-12-23T01:07:42.211Z,101439.88
2018-12-23T01:10:11.284Z,101443.32
2018-12-23T01:12:40.340Z,101438.54
2018-12-23T01:15:09.435Z,101448.02
2018-12-23T01:17:38.492Z,101457.71
2018-12-23T01:20:07.538Z,101464.37
2018-12-23T01:22:36.636Z,101458.71
2018-12-23T01:25:05.694Z,101460.23
2018-12-23T01:27:34.763Z,101456.02
2018-12-23T01:30:03.848Z,101459.22
2018-12-23T01:32:32.904Z,101463.66
2018-12-23T01:35:01.970Z,101465.45
2018-12-23T01:37:31.090Z,101456.66
2018-12-23T01:40:00.159Z,101461.84
2018-12-23T01:42:29.221Z,101468.30
2018-12-23T01:44:58.297Z,101473.65
2018-12-23T01:47:27.491Z,101470.75
2018-12-23T01:49:56.438Z,101470.16
2018-12-23T01:52:25.534Z,101474.84
2018-12-23T01:54:54.580Z,101477.91
2018-12-23T01:57:23.630Z,101479.93
2018-12-23T01:59:52.757Z,101488.92
2018-12-23T02:02:21.815Z,101481.55
2018-12-23T02:04:50.862Z,101492.23
2018-12-23T02:07:19.939Z,101494.58
2018-12-23T02:09:48.993Z,101490.46
2018-12-23T02:12:18.044Z,101493.59
2018-12-23T02:14:47.125Z,101501.83
2018-12-23T02:20:18.303Z,101489.23
2018-12-23T02:22:47.355Z,101488.97
2018-12-23T02:25:16.474Z,101488.00
2018-12-23T02:27:45.486Z,101494.84
2018-12-23T02:30:14.546Z,101493.76
2018-12-23T02:32:43.678Z,101490.75
2018-12-23T02:35:12.836Z,101487.77
2018-12-23T02:37:41.899Z,101489.81
2018-12-23T02:40:10.940Z,101489.01
2018-12-23T02:42:40.054Z,101488.92
2018-12-23T02:45:09.106Z,101490.30
2018-12-23T02:47:38.315Z,101491.97
2018-12-23T02:50:07.433Z,101491.57
2018-12-23T02:52:36.500Z,101498.67
2018-12-23T02:55:05.537Z,101503.88
2018-12-23T02:57:34.635Z,101510.91
2018-12-23T03:00:03.684Z,101511.13
2018-12-23T03:02:32.738Z,101507.00
2018-12-23T03:05:01.840Z,101506.16
2018-12-23T03:07:30.915Z,101506.22
2018-12-23T03:09:59.968Z,101508.59
2018-12-23T03:12:29.057Z,101514.58
2018-12-23T03:14:58.119Z,101508.78
2018-12-23T03:17:27.227Z,101509.45
2018-12-23T03:19:56.278Z,101520.95
2018-12-23T03:22:25.338Z,101514.56
2018-12-23T03:24:54.405Z,101515.88
2018-12-23T03:30:20.802Z,101516.73
2018-12-23T03:32:49.893Z,101516.13
2018-12-23T03:35:18.955Z,101519.51
2018-12-23T03:37:48.015Z,101521.91
2018-12-23T03:40:17.113Z,101521.12
2018-12-23T03:42:46.169Z,101521.38
2018-12-23T03:45:15.239Z,101529.34
2018-12-23T03:47:44.355Z,101533.70
2018-12-23T03:50:13.420Z,101530.23
2018-12-23T03:52:42.478Z,101522.14
2018-12-23T03:55:11.562Z,101528.52
2018-12-23T03:57:48.575Z,101528.12
2018-12-23T04:00:17.659Z,101530.36
2018-12-23T04:02:46.712Z,101528.77
2018-12-23T04:05:15.764Z,101534.37
2018-12-23T04:07:44.860Z,101526.70
2018-12-23T04:10:13.892Z,101527.05
2018-12-23T04:12:42.934Z,101524.99
2018-12-23T04:15:12.025Z,101527.12
2018-12-23T04:17:41.064Z,101538.75
2018-12-23T04:20:10.117Z,101543.48
2018-12-23T04:22:39.195Z,101536.25
2018-12-23T04:25:08.252Z,101529.64
2018-12-23T04:27:37.303Z,101529.14
2018-12-23T04:30:06.397Z,101520.25
2018-12-23T04:32:35.436Z,101518.14
2018-12-23T04:35:04.491Z,101523.91
2018-12-23T04:37:33.584Z,101517.55
2018-12-23T04:40:02.642Z,101521.19
2018-12-23T04:42:31.688Z,101526.84
2018-12-23T04:45:00.782Z,101527.84
2018-12-23T04:47:29.840Z,101531.96
2018-12-23T04:49:58.886Z,101531.49
2018-12-23T04:52:27.991Z,101535.03
2018-12-23T04:54:57.043Z,101539.38
2018-12-23T04:57:26.104Z,101543.84
2018-12-23T04:59:55.182Z,101541.72
2018-12-23T05:02:24.233Z,101542.09
2018-12-23T05:04:53.290Z,101544.05
2018-12-23T05:07:34.391Z,101537.58
2018-12-23T05:10:03.448Z,101535.23
2018-12-23T05:12:32.502Z,101541.37
2018-12-23T05:15:01.590Z,101536.55
2018-12-23T05:17:30.641Z,101545.84
2018-12-23T05:19:59.702Z,101544.27
2018-12-23T05:22:28.799Z,101541.64
2018-12-23T05:24:57.875Z,101540.88
2018-12-23T05:27:44.373Z,101548.39
2018-12-23T05:30:13.436Z,101544.64
2018-12-23T05:32:42.497Z,101544.42
2018-12-23T05:35:11.593Z,101543.98
2018-12-23T05:37:40.661Z,101546.30
2018-12-23T05:40:09.729Z,101545.44
2018-12-23T05:42:38.816Z,101541.52
2018-12-23T05:45:07.886Z,101544.56
2018-12-23T05:47:53.873Z,101548.32
2018-12-23T05:50:22.934Z,101544.50
2018-12-23T05:52:52.009Z,101550.19
2018-12-23T05:55:24.345Z,101547.62
2018-12-23T05:57:53.400Z,101550.48
2018-12-23T06:00:22.475Z,101549.38
2018-12-23T06:02:51.584Z,101549.45
2018-12-23T06:05:20.649Z,101547.93
2018-12-23T06:07:49.772Z,101554.78
2018-12-23T06:10:18.896Z,101561.84
2018-12-23T06:12:47.955Z,101563.06
2018-12-23T06:15:17.000Z,101570.06
2018-12-23T06:17:46.088Z,101562.99
2018-12-23T06:20:15.157Z,101564.35
2018-12-23T06:22:44.210Z,101564.86
2018-12-23T06:25:13.297Z,101567.84
2018-12-23T06:27:42.350Z,101572.34
2018-12-23T06:30:11.412Z,101567.23
2018-12-23T06:32:40.514Z,101566.64
2018-12-23T06:35:09.630Z,101570.24
2018-12-23T06:37:38.644Z,101574.90
2018-12-23T06:40:07.739Z,101570.41
2018-12-23T06:42:36.799Z,101568.28
2018-12-23T06:45:05.848Z,101565.27
2018-12-23T06:47:34.945Z,101576.73
2018-12-23T06:50:04.056Z,101575.70
2018-12-23T06:52:33.123Z,101578.03
2018-12-23T06:55:02.230Z,101576.84
2018-12-23T06:57:31.288Z,101574.44
2018-12-23T07:00:00.357Z,101580.49
2018-12-23T07:02:29.439Z,101575.45
2018-12-23T07:04:58.500Z,101578.68
2018-12-23T07:07:27.564Z,101571.68
2018-12-23T07:09:56.655Z,101562.03
2018-12-23T07:12:25.711Z,101552.70
2018-12-23T07:14:54.779Z,101562.59
2018-12-23T07:17:23.894Z,101557.76
2018-12-23T07:19:52.956Z,101561.73
2018-12-23T07:22:22.017Z,101565.22
2018-12-23T07:24:52.052Z,101570.98
2018-12-23T07:27:21.116Z,101571.81
2018-12-23T07:29:54.237Z,101568.44
2018-12-23T07:32:27.543Z,101570.91
2018-12-23T07:34:56.811Z,101556.55
2018-12-23T07:37:27.699Z,101566.30
2018-12-23T07:39:54.954Z,101559.98
2018-12-23T07:42:24.045Z,101561.34
2018-12-23T07:44:53.105Z,101558.25
2018-12-23T07:47:22.148Z,101556.56
2018-12-23T07:49:51.241Z,101560.95
2018-12-23T07:52:20.310Z,101565.30
2018-12-23T07:54:49.374Z,101559.32
2018-12-23T07:57:18.612Z,101561.06
2018-12-23T07:59:47.670Z,101555.36
2018-12-23T08:02:16.747Z,101559.06
2018-12-23T08:04:45.827Z,101555.20
2018-12-23T08:07:14.891Z,101560.57
2018-12-23T08:09:43.948Z,101564.27
2018-12-23T08:12:13.111Z,101570.38
2018-12-23T08:14:42.160Z,101566.23
2018-12-23T08:17:11.218Z,101565.98
2018-12-23T08:19:40.354Z,101566.70
2018-12-23T08:22:09.415Z,101565.63
2018-12-23T08:24:38.481Z,101576.41
2018-12-23T08:27:07.569Z,101568.42
2018-12-23T08:29:36.633Z,101569.49
2018-12-23T08:32:05.688Z,101563.34
2018-12-23T08:34:34.785Z,101565.22
2018-12-23T08:37:03.850Z,101562.95
2018-12-23T08:39:32.918Z,101562.58
2018-12-23T08:42:02.168Z,101560.61
2018-12-23T08:44:31.218Z,101552.45
2018-12-23T08:47:00.282Z,101556.98
2018-12-23T08:49:29.382Z,101566.56
2018-12-23T08:51:58.443Z,101550.54
2018-12-23T08:54:27.512Z,101551.75
2018-12-23T08:56:56.613Z,101556.60
2018-12-23T08:59:25.687Z,101559.02
2018-12-23T09:01:54.737Z,101558.80
2018-12-23T09:04:23.843Z,101556.72
2018-12-23T09:06:57.436Z,101553.17
2018-12-23T09:09:26.594Z,101547.70
2018-12-23T09:11:55.656Z,101540.95
2018-12-23T09:14:24.711Z,101539.80
2018-12-23T09:16:53.800Z,101538.28
2018-12-23T09:19:22.865Z,101540.25
2018-12-23T09:21:51.933Z,101539.97
2018-12-23T09:24:21.039Z,101538.73
2018-12-23T09:26:50.159Z,101539.41
2018-12-23T09:29:19.226Z,101537.45
2018-12-23T09:31:48.311Z,101538.45
2018-12-23T09:34:17.394Z,101539.38
2018-12-23T09:36:47.737Z,101533.98
2018-12-23T09:39:15.534Z,101538.84
2018-12-23T09:41:44.592Z,101537.11
2018-12-23T09:44:13.661Z,101528.44
2018-12-23T09:46:46.163Z,101534.71
2018-12-23T09:49:15.221Z,101532.54
2018-12-23T09:51:44.280Z,101526.05
2018-12-23T09:54:13.365Z,101520.78
2018-12-23T09:56:42.427Z,101511.73
2018-12-23T09:59:11.485Z,101508.35
2018-12-23T10:01:40.574Z,101498.92
2018-12-23T10:04:09.637Z,101495.33
2018-12-23T10:07:03.395Z,101496.85
2018-12-23T10:09:32.463Z,101497.67
2018-12-23T10:12:01.544Z,101492.17
2018-12-23T10:14:30.610Z,101485.02
2018-12-23T10:16:59.672Z,101481.52
2018-12-23T10:19:28.764Z,101478.63
2018-12-23T10:21:57.834Z,101476.02
2018-12-23T10:24:26.891Z,101478.80
2018-12-23T10:26:55.993Z,101478.45
2018-12-23T10:29:25.068Z,101472.17
2018-12-23T10:31:54.143Z,101464.91
2018-12-23T10:34:23.259Z,101458.16
2018-12-23T10:36:52.334Z,101453.26
2018-12-23T10:39:21.398Z,101457.67
2018-12-23T10:41:50.477Z,101455.48
2018-12-23T10:44:19.528Z,101447.48
2018-12-23T10:46:48.589Z,101441.92
2018-12-23T10:49:17.694Z,101441.80
2018-12-23T10:51:46.750Z,101437.07
2018-12-23T10:54:15.813Z,101444.97
2018-12-23T10:56:44.897Z,101436.25
2018-12-23T10:59:13.971Z,101431.30
2018-12-23T11:01:43.029Z,101427.75
2018-12-23T11:04:12.119Z,101423.30
2018-12-23T11:06:41.184Z,101421.45
2018-12-23T11:09:10.256Z,101424.28
2018-12-23T11:11:39.406Z,101415.84
2018-12-23T11:14:08.462Z,101410.61
2018-12-23T11:16:37.527Z,101409.80
2018-12-23T11:19:06.612Z,101402.38
2018-12-23T11:21:37.209Z,101395.45
2018-12-23T11:24:04.761Z,101396.39
2018-12-23T11:26:33.851Z,101394.22
2018-12-23T11:29:02.918Z,101389.09
2018-12-23T11:31:31.972Z,101385.34
2018-12-23T11:34:01.075Z,101382.34
2018-12-23T11:39:29.972Z,101368.52
2018-12-23T11:41:59.026Z,101368.08
2018-12-23T11:44:28.090Z,101372.14
2018-12-23T11:46:59.215Z,101365.83
2018-12-23T11:49:28.269Z,101367.09
2018-12-23T11:51:57.322Z,101362.68
2018-12-23T11:54:26.427Z,101358.87
2018-12-23T11:56:55.495Z,101359.80
2018-12-23T11:59:24.561Z,101353.70
2018-12-23T12:01:53.655Z,101354.53
2018-12-23T12:04:22.713Z,101348.81
2018-12-23T12:07:04.974Z,101351.09
2018-12-23T12:09:34.039Z,101336.67
2018-12-23T12:12:03.106Z,101335.75
2018-12-23T12:14:32.216Z,101324.69
2018-12-23T12:17:01.280Z,101325.41
2018-12-23T12:19:30.354Z,101322.02
2018-12-23T12:21:59.431Z,101320.23
2018-12-23T12:24:28.500Z,101317.36
2018-12-23T12:26:57.560Z,101313.69
2018-12-23T12:29:26.643Z,101315.34
2018-12-23T12:31:55.716Z,101316.70
2018-12-23T12:34:24.773Z,101310.69
2018-12-23T12:36:53.887Z,101311.72
2018-12-23T12:39:22.961Z,101306.99
2018-12-23T12:41:52.030Z,101299.48
2018-12-23T12:44:21.133Z,101296.61
2018-12-23T12:46:50.207Z,101297.22
2018-12-23T12:49:19.275Z,101287.19
2018-12-23T12:51:48.380Z,101287.08
2018-12-23T12:54:17.455Z,101285.00
2018-12-23T12:56:46.521Z,101280.05
2018-12-23T12:59:15.612Z,101277.87
2018-12-23T13:01:44.674Z,101276.47
2018-12-23T13:04:13.738Z,101268.67
2018-12-23T13:06:42.850Z,101269.16
2018-12-23T13:09:11.916Z,101268.45
2018-12-23T13:11:40.981Z,101269.91
2018-12-23T13:14:10.084Z,101269.35
2018-12-23T13:19:41.856Z,101253.86
2018-12-23T13:22:10.928Z,101250.64
2018-12-23T13:24:39.991Z,101252.42
2018-12-23T13:27:09.106Z,101248.28
2018-12-23T13:29:38.169Z,101243.78
2018-12-23T13:32:07.245Z,101245.89
2018-12-23T13:34:36.345Z,101235.39
2018-12-23T13:37:05.416Z,101242.61
2018-12-23T13:39:34.480Z,101241.83
2018-12-23T13:42:05.117Z,101239.95
2018-12-23T13:44:48.363Z,101227.33
2018-12-23T13:47:23.103Z,101228.47
2018-12-23T13:49:58.686Z,101231.66
2018-12-23T13:52:30.466Z,101227.03
2018-12-23T13:54:59.540Z,101223.17
2018-12-23T13:57:28.798Z,101225.91
2018-12-23T14:00:16.796Z,101222.38
2018-12-23T14:02:47.568Z,101225.52
2018-12-23T14:05:16.611Z,101220.73
2018-12-23T14:07:45.752Z,101213.61
2018-12-23T14:10:16.403Z,101207.08
2018-12-23T14:12:43.877Z,101212.62
2018-12-23T14:15:12.967Z,101213.05
2018-12-23T14:17:42.040Z,101209.83
2018-12-23T14:20:11.095Z,101206.81
2018-12-23T14:22:40.209Z,101208.33
2018-12-23T14:25:09.392Z,101209.20
2018-12-23T14:27:38.363Z,101202.97
2018-12-23T14:30:07.698Z,101202.33
2018-12-23T14:32:36.772Z,101203.03
2018-12-23T14:35:05.841Z,101199.27
2018-12-23T14:37:34.930Z,101199.93
2018-12-23T14:40:04.008Z,101197.38
2018-12-23T14:42:35.336Z,101195.20
2018-12-23T14:45:04.492Z,101197.52
2018-12-23T14:47:33.564Z,101195.53
2018-12-23T14:50:02.644Z,101196.41
2018-12-23T14:52:31.800Z,101195.21
2018-12-23T14:55:00.868Z,101195.11
2018-12-23T14:57:30.783Z,101195.00
2018-12-23T14:59:59.042Z,101195.59
2018-12-23T15:02:28.109Z,101195.09
2018-12-23T15:04:57.173Z,101187.55
2018-12-23T15:10:27.329Z,101187.94
2018-12-23T15:12:56.428Z,101190.59
2018-12-23T15:15:24.912Z,101180.13
2018-12-23T15:17:54.417Z,101185.12
2018-12-23T15:20:23.549Z,101180.70
2018-12-23T15:22:52.628Z,101177.26
2018-12-23T15:25:21.767Z,101175.92
2018-12-23T15:27:50.915Z,101171.86
2018-12-23T15:30:19.989Z,101169.80
2018-12-23T15:32:49.059Z,101165.45
2018-12-23T15:35:18.144Z,101164.09
2018-12-23T15:37:47.242Z,101164.14
2018-12-23T15:40:16.315Z,101158.67
2018-12-23T15:42:45.410Z,101156.55
2018-12-23T15:45:14.538Z,101156.45
2018-12-23T15:47:48.922Z,101157.31
2018-12-23T15:50:17.985Z,101158.27
2018-12-23T15:52:47.046Z,101162.07
2018-12-23T15:55:16.152Z,101153.64
2018-12-23T15:57:45.249Z,101155.61
2018-12-23T16:00:14.318Z,101161.23
2018-12-23T16:02:43.430Z,101155.66
2018-12-23T16:05:12.527Z,101161.30
2018-12-23T16:07:41.605Z,101158.30
2018-12-23T16:10:10.854Z,101151.80
2018-12-23T16:12:39.926Z,101156.16
2018-12-23T16:15:08.996Z,101152.94
2018-12-23T16:17:38.100Z,101147.95
2018-12-23T16:20:07.176Z,101149.96
2018-12-23T16:22:36.250Z,101146.83
2018-12-23T16:25:05.355Z,101147.69
2018-12-23T16:27:34.430Z,101143.61
2018-12-23T16:30:03.492Z,101145.74
2018-12-23T16:32:32.639Z,101152.59
2018-12-23T16:35:01.715Z,101152.69
2018-12-23T16:37:30.801Z,101150.41
2018-12-23T16:39:59.935Z,101158.30
2018-12-23T16:42:28.980Z,101150.73
2018-12-23T16:44:58.050Z,101149.60
2018-12-23T16:47:27.180Z,101157.31
2018-12-23T16:49:56.253Z,101155.87
2018-12-23T16:52:25.312Z,101161.88
2018-12-23T16:54:54.454Z,101155.15
2018-12-23T16:57:23.504Z,101158.05
2018-12-23T16:59:52.573Z,101164.75
2018-12-23T17:02:21.691Z,101158.30
2018-12-23T17:04:50.763Z,101160.95
2018-12-23T17:07:19.831Z,101163.79
2018-12-23T17:09:48.957Z,101162.64
2018-12-23T17:12:18.043Z,101165.58
2018-12-23T17:14:47.119Z,101164.06
2018-12-23T17:17:16.266Z,101166.95
2018-12-23T17:19:45.342Z,101164.89
2018-12-23T17:22:14.410Z,101166.16
2018-12-23T17:24:43.611Z,101169.25
2018-12-23T17:27:12.708Z,101170.95
2018-12-23T17:29:41.848Z,101164.79
2018-12-23T17:32:10.933Z,101162.31
2018-12-23T17:34:40.014Z,101161.77
2018-12-23T17:37:09.076Z,101159.16
2018-12-23T17:39:38.223Z,101153.66
2018-12-23T17:42:07.297Z,101158.02
2018-12-23T17:44:36.363Z,101163.02
2018-12-23T17:50:21.371Z,101162.48
2018-12-23T17:52:50.467Z,101161.22
2018-12-23T17:55:19.531Z,101170.20
2018-12-23T17:57:48.599Z,101167.69
2018-12-23T18:00:17.706Z,101172.36
2018-12-23T18:02:46.793Z,101169.37
2018-12-23T18:05:15.879Z,101167.70
2018-12-23T18:07:44.980Z,101166.13
2018-12-23T18:10:14.053Z,101167.52
2018-12-23T18:12:43.120Z,101170.91
2018-12-23T18:15:12.257Z,101168.47
2018-12-23T18:17:41.324Z,101164.48
2018-12-23T18:20:10.400Z,101166.40
2018-12-23T18:22:39.540Z,101162.64
2018-12-23T18:25:08.620Z,101166.94
2018-12-23T18:27:37.741Z,101166.13
2018-12-23T18:30:06.846Z,101166.02
2018-12-23T18:32:35.931Z,101163.45
2018-12-23T18:35:05.177Z,101170.38
2018-12-23T18:37:34.275Z,101166.28
2018-12-23T18:40:03.338Z,101177.05
2018-12-23T18:42:32.400Z,101166.94
2018-12-23T18:45:01.538Z,101171.39
2018-12-23T18:47:30.611Z,101172.31
2018-12-23T18:49:59.672Z,101174.16
2018-12-23T18:52:28.810Z,101173.40
2018-12-23T18:54:57.866Z,101173.84
2018-12-23T18:57:26.921Z,101176.52
2018-12-23T18:59:56.003Z,101179.98
2018-12-23T19:02:25.077Z,101179.29
2018-12-23T19:04:54.149Z,101174.55
2018-12-23T19:07:23.268Z,101179.16
2018-12-23T19:09:52.354Z,101181.67
2018-12-23T19:12:26.360Z,101179.45
2018-12-23T19:15:02.916Z,101184.33
2018-12-23T19:17:34.593Z,101182.91
2018-12-23T19:20:05.303Z,101184.86
2018-12-23T19:22:34.357Z,101187.52
2018-12-23T19:25:05.447Z,101185.17
2018-12-23T19:27:36.429Z,101193.82
2018-12-23T19:30:12.956Z,101189.53
2018-12-23T19:32:56.139Z,101188.48
2018-12-23T19:35:29.022Z,101194.80
2018-12-23T19:38:00.876Z,101196.47
2018-12-23T19:40:51.511Z,101190.92
2018-12-23T19:43:39.368Z,101192.13
2018-12-23T19:46:20.992Z,101185.70
2018-12-23T19:48:57.929Z,101191.64
2018-12-23T19:51:32.009Z,101189.04
2018-12-23T19:54:01.903Z,101186.14
2018-12-23T19:56:33.677Z,101187.35
2018-12-23T19:59:08.515Z,101196.48
2018-12-23T20:01:56.282Z,101194.86
2018-12-23T20:04:26.182Z,101195.02
2018-12-23T20:06:58.823Z,101194.25
2018-12-23T20:09:42.113Z,101195.67
2018-12-23T20:12:18.718Z,101196.11
2018-12-23T20:14:50.712Z,101196.56
2018-12-23T20:17:26.276Z,101198.23
2018-12-23T20:19:58.869Z,101200.20
2018-12-23T20:22:32.672Z,101201.12
2018-12-23T20:25:01.734Z,101200.02
2018-12-23T20:27:34.490Z,101199.02
2018-12-23T20:30:07.219Z,101199.11
2018-12-23T20:32:41.295Z,101198.73
2018-12-23T20:35:16.009Z,101202.72
2018-12-23T20:37:46.916Z,101202.27
2018-12-23T20:40:27.795Z,101202.60
2018-12-23T20:43:02.458Z,101203.09
2018-12-23T20:45:43.345Z,101209.23
2018-12-23T20:48:12.429Z,101207.31
2018-12-23T20:50:41.517Z,101211.67
2018-12-23T20:56:03.546Z,101214.34
2018-12-23T20:58:37.413Z,101215.76
2018-12-23T21:01:22.095Z,101214.56
2018-12-23T21:03:57.021Z,101213.85
2018-12-23T21:06:28.786Z,101210.65
2018-12-23T21:08:58.773Z,101213.05
2018-12-23T21:11:32.397Z,101215.44
2018-12-23T21:14:07.184Z,101213.58
2018-12-23T21:16:37.124Z,101214.98
2018-12-23T21:19:06.985Z,101213.35
2018-12-23T21:21:36.844Z,101211.30
2018-12-23T21:24:11.845Z,101213.09
2018-12-23T21:26:47.392Z,101206.19
2018-12-23T21:29:19.400Z,101208.52
2018-12-23T21:31:50.277Z,101206.45
2018-12-23T21:34:27.083Z,101204.51
2018-12-23T21:36:59.897Z,101210.97
2018-12-23T21:39:30.931Z,101206.06
2018-12-23T21:42:04.824Z,101212.28
2018-12-23T21:44:35.709Z,101208.67
2018-12-23T21:47:14.213Z,101209.61
2018-12-23T21:49:49.318Z,101212.98
2018-12-23T21:52:18.377Z,101213.52
2018-12-23T21:54:50.288Z,101214.34
2018-12-23T21:57:34.618Z,101211.56
2018-12-23T22:02:57.399Z,101222.59
2018-12-23T22:05:28.451Z,101221.45
2018-12-23T22:08:11.449Z,101215.02
2018-12-23T22:10:47.300Z,101212.09
2018-12-23T22:13:30.532Z,101216.05
2018-12-23T22:15:59.625Z,101217.37
2018-12-23T22:18:28.688Z,101217.63
2018-12-23T22:20:57.758Z,101224.03
2018-12-23T22:23:26.888Z,101220.23
2018-12-23T22:25:55.947Z,101224.56
2018-12-23T22:28:25.003Z,101225.64
2018-12-23T22:30:54.097Z,101225.77
2018-12-23T22:33:23.153Z,101220.16
2018-12-23T22:35:52.213Z,101212.81
2018-12-23T22:38:21.322Z,101216.48
2018-12-23T22:40:50.368Z,101220.64
2018-12-23T22:43:19.489Z,101218.31
2018-12-23T22:45:48.596Z,101221.79
2018-12-23T22:48:17.659Z,101219.73
2018-12-23T22:50:46.712Z,101214.67
2018-12-23T22:53:15.844Z,101219.78
2018-12-23T22:55:44.912Z,101216.42
2018-12-23T22:58:13.964Z,101221.58
2018-12-23T23:00:43.053Z,101216.59
2018-12-23T23:03:12.128Z,101219.95
2018-12-23T23:05:41.181Z,101216.36
2018-12-23T23:08:10.384Z,101225.45
2018-12-23T23:10:39.465Z,101217.03
2018-12-23T23:13:08.526Z,101220.66
2018-12-23T23:15:37.612Z,101223.97
2018-12-23T23:18:06.662Z,101221.29
2018-12-23T23:20:35.730Z,101221.67
2018-12-23T23:23:04.812Z,101222.00
2018-12-23T23:25:33.869Z,101221.83
2018-12-23T23:28:02.916Z,101225.80
2018-12-23T23:30:31.995Z,101230.00
2018-12-23T23:33:01.045Z,101230.00
2018-12-23T23:35:30.157Z,101236.41
2018-12-23T23:37:59.232Z,101235.45
2018-12-23T23:40:28.270Z,101227.27
2018-12-23T23:42:57.311Z,101228.72
2018-12-23T23:45:26.378Z,101228.91
2018-12-23T23:47:55.420Z,101232.48
2018-12-23T23:50:24.470Z,101238.86
2018-12-23T23:52:53.567Z,101246.20
2018-12-23T23:55:22.613Z,101247.91
2018-12-23T23:57:51.665Z,101245.63
